Météo Nord-Pas-de-Calais   La météo au plus près de chez vous

Station météorologique

Observations météo à Bernay (27056)

27056003 166 m Dernier relevé à 09:54
16.9°C
Humidité 97 % Vent 10.1 km/h

Journée consultée

Lundi 31 Août 2026

Synthèse de la journée

Périodes de référence en UTC

Température maximale

17.1°C

à 09:48

06h 06h

Température minimale

14.8°C

à 09:00

18h 18h

Rafale maximale

37 km/h

à 04:48

00h 00h

Précipitations

0.3 mm

Cumul quotidien

06h 06h

Ensoleillement

0h 14 mins

Durée quotidienne

00h 00h

Graphiques de la journée

Heure locale Réduire

Données détaillées

Relevés météo

Pas de 6 minutes Afficher les relevés infra-horaires
Relevés météo détaillés à Bernay pour le Lundi 31 Août 2026
Heure Température °C Point de rosée °C Humidité % Vent moyen (raf.), km/h Précipitations mm Ensoleillement min Rayonnement global W/m²
09:54 16.9 °C 13.8 °C 82 % 19 km/h (28 km/h) 0 mm0 mm 0 min 51.3 W/m²
09:48 17.1 °C 14.4 °C 84 % 17 km/h (27 km/h) 0 mm0 mm 5 min 117.2 W/m²
09:42 16.6 °C 14.2 °C 86 % 16 km/h (27 km/h) 0 mm0 mm 2 min 83.6 W/m²
09:36 16.3 °C 14.1 °C 87 % 14 km/h (27 km/h) 0 mm0 mm 0 min 36.2 W/m²
09:30 16.2 °C 14.6 °C 90 % 12 km/h (24 km/h) 0 mm0 mm 0 min 66.1 W/m²
09:24 15.9 °C 14.8 °C 93 % 11 km/h (19 km/h) 0 mm0 mm 5 min 80.7 W/m²
09:18 15.5 °C 14.5 °C 94 % 12 km/h (20 km/h) 0 mm0 mm 2 min 55.3 W/m²
09:12 15.3 °C 14.3 °C 94 % 13 km/h (20 km/h) 0 mm0 mm 0 min 43.5 W/m²
09:06 15.1 °C 14.5 °C 96 % 12 km/h (21 km/h) 0 mm0 mm 0 min 32.7 W/m²
09:00 14.9 °C 14.4 °C 97 % 9 km/h (21 km/h) 0 mm0.3 mm 0 min 10.3 W/m²
08:54 14.9 °C 14.4 °C 97 % 10 km/h (16 km/h) 0.2 mm0 mm 0 min 4.9 W/m²
08:48 14.9 °C 14.3 °C 96 % 13 km/h (21 km/h) 0 mm0 mm 0 min 12.3 W/m²
08:42 15 °C 14 °C 94 % 18 km/h (26 km/h) 0.1 mm0 mm 0 min 5.9 W/m²
08:36 15.4 °C 13.9 °C 91 % 17 km/h (26 km/h) 0 mm0 mm 0 min 0 W/m²
08:30 16.1 °C 13.4 °C 84 % 15 km/h (24 km/h) 0 mm0 mm 0 min 0.3 W/m²
08:24 16.2 °C 13.3 °C 83 % 16 km/h (27 km/h) 0 mm0 mm 0 min 1.6 W/m²
08:18 16.2 °C 13.3 °C 83 % 16 km/h (31 km/h) 0 mm0 mm 0 min 7.8 W/m²
08:12 16.2 °C 13.3 °C 83 % 15 km/h (27 km/h) 0 mm0 mm 0 min 6.2 W/m²
08:06 16.2 °C 13.3 °C 83 % 15 km/h (26 km/h) 0 mm0 mm 0 min 3.5 W/m²
08:00 16.2 °C 13.3 °C 83 % 15 km/h (24 km/h) 0 mm0 mm 0 min 2.7 W/m²
07:54 16.2 °C 13.3 °C 83 % 14 km/h (24 km/h) 0 mm0 mm 0 min 10.4 W/m²
07:48 16.2 °C 13.1 °C 82 % 14 km/h (28 km/h) 0 mm0 mm 0 min 0.8 W/m²
07:42 16.2 °C 13.1 °C 82 % 15 km/h (28 km/h) 0 mm0 mm 0 min 0 W/m²
07:36 16.2 °C 13.1 °C 82 % 16 km/h (26 km/h) 0 mm0 mm 0 min 0 W/m²
07:30 16.2 °C 13.1 °C 82 % 16 km/h (29 km/h) 0 mm0 mm 0 min 0 W/m²
07:24 16.3 °C 13 °C 81 % 18 km/h (33 km/h) 0 mm0 mm 0 min 0 W/m²
07:18 16.3 °C 13 °C 81 % 18 km/h (33 km/h) 0 mm0 mm 0 min 0 W/m²
07:12 16.2 °C 13.1 °C 82 % 18 km/h (32 km/h) 0 mm0 mm 0 min 0 W/m²
07:06 16.2 °C 13.1 °C 82 % 17 km/h (33 km/h) 0 mm0 mm 0 min 0 W/m²
07:00 16.2 °C 13.1 °C 82 % 18 km/h (33 km/h) 0 mm0 mm 0 min 0 W/m²
06:54 16.1 °C 13 °C 82 % 18 km/h (37 km/h) 0 mm0 mm 0 min 0 W/m²
06:48 16.1 °C 13 °C 82 % 18 km/h (30 km/h) 0 mm0 mm 0 min 0 W/m²
06:42 16.1 °C 13 °C 82 % 17 km/h (30 km/h) 0 mm0 mm 0 min 0 W/m²
06:36 16.1 °C 13 °C 82 % 16 km/h (26 km/h) 0 mm0 mm 0 min 0 W/m²
06:30 16.1 °C 13 °C 82 % 17 km/h (30 km/h) 0 mm0 mm 0 min 0 W/m²
06:24 15.9 °C 12.8 °C 82 % 17 km/h (33 km/h) 0 mm0 mm 0 min 0 W/m²
06:18 16 °C 12.9 °C 82 % 18 km/h (33 km/h) 0 mm0 mm 0 min 0 W/m²
06:12 16 °C 12.9 °C 82 % 18 km/h (33 km/h) 0 mm0 mm 0 min 0 W/m²
06:06 16.1 °C 13 °C 82 % 17 km/h (34 km/h) 0 mm0 mm 0 min 0 W/m²
06:00 16.1 °C 13 °C 82 % 18 km/h (28 km/h) 0 mm0 mm 0 min 0 W/m²
05:54 16.1 °C 13 °C 82 % 19 km/h (35 km/h) 0 mm0 mm 0 min 0 W/m²
05:48 16.2 °C 12.9 °C 81 % 20 km/h (35 km/h) 0 mm0 mm 0 min 0 W/m²
05:42 16.3 °C 13.2 °C 82 % 18 km/h (35 km/h) 0 mm0 mm 0 min 0 W/m²
05:36 16.2 °C 13.1 °C 82 % 15 km/h (32 km/h) 0 mm0 mm 0 min 0 W/m²
05:30 16.2 °C 13.3 °C 83 % 15 km/h (32 km/h) 0 mm0 mm 0 min 0 W/m²
05:24 16.1 °C 13.2 °C 83 % 16 km/h (31 km/h) 0 mm0 mm 0 min 0 W/m²
05:18 16.2 °C 13.1 °C 82 % 17 km/h (31 km/h) 0 mm0 mm 0 min 0 W/m²
05:12 16.2 °C 13.1 °C 82 % 17 km/h (31 km/h) 0 mm0 mm 0 min 0 W/m²
05:06 16.3 °C 13.2 °C 82 % 18 km/h (32 km/h) 0 mm0 mm 0 min 0 W/m²
05:00 16.4 °C 13.5 °C 83 % 18 km/h (32 km/h) 0 mm0 mm 0 min 0 W/m²
04:54 16.4 °C 13.5 °C 83 % 19 km/h (37 km/h) 0 mm0 mm 0 min 0 W/m²
04:48 16.5 °C 13.6 °C 83 % 17 km/h (37 km/h) 0 mm0 mm 0 min 0 W/m²
04:42 16.5 °C 13.6 °C 83 % 14 km/h (27 km/h) 0 mm0 mm 0 min 0 W/m²
04:36 16.6 °C 13.7 °C 83 % 18 km/h (30 km/h) 0 mm0 mm 0 min 0 W/m²
04:30 16.7 °C 13.6 °C 82 % 18 km/h (33 km/h) 0 mm0 mm 0 min 0 W/m²
04:24 16.8 °C 13.7 °C 82 % 19 km/h (33 km/h) 0 mm0 mm 0 min 0 W/m²
04:18 16.7 °C 13.6 °C 82 % 18 km/h (30 km/h) 0 mm0 mm 0 min 0 W/m²
04:12 16.7 °C 13.6 °C 82 % 18 km/h (35 km/h) 0 mm0 mm 0 min 0 W/m²
04:06 16.5 °C 13.6 °C 83 % 15 km/h (31 km/h) 0 mm0 mm 0 min 0 W/m²
04:00 16.5 °C 13.6 °C 83 % 15 km/h (28 km/h) 0 mm0 mm 0 min 0 W/m²
03:54 16.5 °C 13.6 °C 83 % 16 km/h (30 km/h) 0 mm0 mm 0 min 0 W/m²
03:48 16.5 °C 13.6 °C 83 % 17 km/h (32 km/h) 0 mm0 mm 0 min 0 W/m²
03:42 16.4 °C 13.5 °C 83 % 15 km/h (32 km/h) 0 mm0 mm 0 min 0 W/m²
03:36 16.2 °C 13.5 °C 84 % 15 km/h (29 km/h) 0 mm0 mm 0 min 0 W/m²
03:30 16.2 °C 13.3 °C 83 % 16 km/h (32 km/h) 0 mm0 mm 0 min 0 W/m²
03:24 16.3 °C 13.4 °C 83 % 18 km/h (32 km/h) 0 mm0 mm 0 min 0 W/m²
03:18 16.3 °C 13.4 °C 83 % 17 km/h (28 km/h) 0 mm0 mm 0 min 0 W/m²
03:12 16.3 °C 13.4 °C 83 % 17 km/h (28 km/h) 0 mm0 mm 0 min 0 W/m²
03:06 16.3 °C 13.6 °C 84 % 16 km/h (28 km/h) 0 mm0 mm 0 min 0 W/m²
03:00 16.4 °C 13.7 °C 84 % 17 km/h (30 km/h) 0 mm0 mm 0 min 0 W/m²
02:54 16.4 °C 13.7 °C 84 % 17 km/h (27 km/h) 0 mm0 mm 0 min 0 W/m²
02:48 16.3 °C 13.6 °C 84 % 16 km/h (27 km/h) 0 mm0 mm 0 min 0 W/m²
02:42 16.2 °C 13.5 °C 84 % 15 km/h (27 km/h) 0 mm0 mm 0 min 0 W/m²
02:36 16.3 °C 13.6 °C 84 % 17 km/h (34 km/h) 0 mm0 mm 0 min 0 W/m²
02:30 16.4 °C 13.5 °C 83 % 19 km/h (37 km/h) 0 mm0 mm 0 min 0 W/m²
02:24 16.4 °C 13.5 °C 83 % 18 km/h (32 km/h) 0 mm0 mm 0 min 0 W/m²
02:18 16.5 °C 13.6 °C 83 % 19 km/h (32 km/h) 0 mm0 mm 0 min 0 W/m²
02:12 16.5 °C 13.6 °C 83 % 20 km/h (32 km/h) 0 mm0 mm 0 min 0 W/m²
02:06 16.5 °C 13.6 °C 83 % 19 km/h (32 km/h) 0 mm0 mm 0 min 0 W/m²
02:00 16.5 °C 13.8 °C 84 % 17 km/h (33 km/h) 0 mm0 mm 0 min 0 W/m²
01:54 16.4 °C 13.9 °C 85 % 18 km/h (33 km/h) 0 mm0 mm 0 min 0 W/m²
01:48 16.6 °C 14.1 °C 85 % 18 km/h (32 km/h) 0 mm0 mm 0 min 0 W/m²
01:42 16.7 °C 14.2 °C 85 % 17 km/h (29 km/h) 0 mm0 mm 0 min 0 W/m²
01:36 16.7 °C 14.2 °C 85 % 15 km/h (29 km/h) 0 mm0 mm 0 min 0 W/m²
01:30 16.7 °C 14.2 °C 85 % 15 km/h (27 km/h) 0 mm0 mm 0 min 0 W/m²
01:24 16.8 °C 14.1 °C 84 % 18 km/h (32 km/h) 0 mm0 mm 0 min 0 W/m²
01:18 16.9 °C 14.2 °C 84 % 16 km/h (28 km/h) 0 mm0 mm 0 min 0 W/m²
01:12 16.7 °C 14 °C 84 % 15 km/h (28 km/h) 0 mm0 mm 0 min 0 W/m²
01:06 16.6 °C 13.9 °C 84 % 13 km/h (24 km/h) 0 mm0 mm 0 min 0 W/m²
01:00 16.6 °C 13.9 °C 84 % 14 km/h (25 km/h) 0 mm0 mm 0 min 0 W/m²
00:54 16.7 °C 14 °C 84 % 15 km/h (26 km/h) 0 mm0 mm 0 min 0 W/m²
00:48 16.7 °C 13.8 °C 83 % 15 km/h (26 km/h) 0 mm0 mm 0 min 0 W/m²
00:42 16.6 °C 13.7 °C 83 % 14 km/h (23 km/h) 0 mm0 mm 0 min 0 W/m²
00:36 16.6 °C 13.7 °C 83 % 15 km/h (24 km/h) 0 mm0 mm 0 min 0 W/m²
00:30 16.6 °C 13.7 °C 83 % 15 km/h (24 km/h) 0 mm0 mm 0 min 0 W/m²
00:24 16.5 °C 13.6 °C 83 % 15 km/h (25 km/h) 0 mm0 mm 0 min 0 W/m²
00:18 16.5 °C 13.6 °C 83 % 15 km/h (25 km/h) 0 mm0 mm 0 min 0 W/m²
00:12 16.4 °C 13.5 °C 83 % 13 km/h (23 km/h) 0 mm0 mm 0 min 0 W/m²
00:06 16.6 °C 13.5 °C 82 % 12 km/h (24 km/h) 0 mm0 mm 0 min 0 W/m²
00:00 16.7 °C 13.6 °C 82 % 14 km/h (25 km/h) 0 mm0 mm 0 min 0 W/m²

Données via Météo-France

Relevés météo à Bernay

Cette page rassemble les observations de la station de Bernay : température, humidité, vent, précipitations et pression atmosphérique. Les graphiques facilitent le suivi de la journée, tandis que le tableau donne accès aux mesures horaires et infra-horaires disponibles.

Pour replacer ces mesures dans leur contexte, consultez la climatologie de Bernay ainsi que ses normales et records. Retrouvez aussi la carte des observations météo en temps réel.